Air Sicilia Virtual Airways - Route

Air Sicilia Virtual Airways - SIC059A

( IT ) LIRA - 00:00
Ciampino Airport
ROMA ( CIA )
plane_to ( IT ) LIMJ - 00:00
Genoa Cristoforo Colombo Airport
GENOVA ( GOA )

AIRPORT NEAR NAVIGATION AIDS

Type Name Frequency
NDB Ciampino 412 KHZ
VOR-DME Roma 110800 KHZ

METAR / TAF
LIRA 181520Z 07008KT 9999 VCTS FEW030CB SCT035 22/18 Q1016
LIRA 181100Z 1812/1912 21010KT 9999 SCT040 TEMPO 1812/1817 4000 TSRA BECMG 1910/1912 22010KT

RUNWAY INFORMATION

Runway Runway length Runway width Runway elevation Runway displaced threshold Runway heading
15 7242 154 341 0 152.7
33 7242 154 427 0 332.7

AIRPORT FREQUENCIES

Type Name Frequency
ARR ROMA ARR 119.2 MHZ
CLD CLNC DEL 119.4 MHZ
DIR ROMA DIREC 119.2 MHZ
GND GND 121.75 MHZ
TWR TWR 120.5 MHZ

AIRPORT NEAR NAVIGATION AIDS

Type Name Frequency
VOR-DME Genova 112800 KHZ
NDB Genova 318 KHZ
VOR-DME Genova Sestri 108600 KHZ

METAR / TAF
LIMJ 181520Z 23005KT 210V270 9999 FEW025 29/21 Q1015
LIMJ 181100Z 1812/1912 VRB05KT 9999 SCT030

RUNWAY INFORMATION

Runway Runway length Runway width Runway elevation Runway displaced threshold Runway heading
10 9564 148 9 0 105
28 9564 148 12 528 285

AIRPORT FREQUENCIES

Type Name Frequency
APP APP 119.6 MHZ
ATIS ATIS 122.825 MHZ
TWR TWR 118.6 MHZ

Flightplan

VFR

Air Sicilia Virtual Airways Fleets

AVAILABLE AIRCRAFTS for route at this time in Ciampino Airport

At this time no aircraft Air Sicilia Virtual Airways is available at Ciampino Airport
Only Charter flights.

227.711 NM

Distance in nautical miles.

€ 272,00

Ticket price for this flight.

0 h.

Estimated flight time.



07-08-2018
Aerosoft Professional Flight Planner PFPX

PFPX - Professional Flight Planner X - è un nuovo ed innovativo strumento di pianificazione del volo sviluppato da piloti e dispatcher del mondo reale. È un'aggiunta preziosa e realistica alla tua esperienza di simulaz ....


19-07-2018
Aerosoft Oslo X

L'Aeroporto di Oslo-Gardermoen (IATA: OSL, ICAO: ENGM) è il principale aeroporto norvegese e il 19° in Europa, è situato vicino alla cittadina di Ullensaker nella contea di Akershus e serve la capitale Oslo. Ha sostit ....


21-06-2018
Aerosoft Malpensa Professional P3Dv4

L'Aeroporto di Milano-Malpensa (IATA: MXP, ICAO: LIMC) è un aeroporto italiano situato nella provincia di Varese in Lombardia, ma considerato come il principale aeroporto di Milano.

È il secondo aeroporto ital ....


06-06-2018
1° Raduno Air Sicilia Virtual - parla il C.E.O.

Grande successo per il 1° Raduno di Compagnia dell'Air Sicilia Virtual, che ha visto i membri della Crew presenti il 4 giugno 2018 a Thiene ( VI ) , cimentarsi dal vivo con le reali ....


24-05-2018
Aerosoft Airport Rome XP

Tra le nostre recensioni non poteva mancare certo la nuova uscita Aerosoft per X-Plane, stiamo parlando di Airport Rome XP, finalmente un Add-on pay completo dell'Aeroporto di Roma Fiumicino per gli utilizzatori del simu ....